sensor_id;sensor_type;location;lat;lon;timestamp;temperature;humidity
1063;DHT22;520;50.932;6.962;2023-03-01T02:03:46;4.00;78.20
1063;DHT22;520;50.932;6.962;2023-03-01T03:56:23;3.30;81.20
1063;DHT22;520;50.932;6.962;2023-03-01T03:59:16;3.30;80.40
1063;DHT22;520;50.932;6.962;2023-03-01T04:02:09;3.20;80.60
1063;DHT22;520;50.932;6.962;2023-03-01T04:04:56;3.00;80.80
1063;DHT22;520;50.932;6.962;2023-03-01T04:07:58;3.00;81.10
1063;DHT22;520;50.932;6.962;2023-03-01T04:11:03;3.00;81.30
1063;DHT22;520;50.932;6.962;2023-03-01T04:14:04;2.90;81.40
1063;DHT22;520;50.932;6.962;2023-03-01T04:17:19;2.80;81.60
1063;DHT22;520;50.932;6.962;2023-03-01T04:20:30;2.90;81.80
1063;DHT22;520;50.932;6.962;2023-03-01T04:27:12;3.30;80.00
1063;DHT22;520;50.932;6.962;2023-03-01T04:30:07;3.10;80.00
1063;DHT22;520;50.932;6.962;2023-03-01T04:33:09;3.00;80.40
1063;DHT22;520;50.932;6.962;2023-03-01T04:36:13;2.90;80.90
1063;DHT22;520;50.932;6.962;2023-03-01T04:39:50;2.80;81.30
1063;DHT22;520;50.932;6.962;2023-03-01T04:43:13;2.80;81.60
1063;DHT22;520;50.932;6.962;2023-03-01T04:46:20;2.80;81.40
1063;DHT22;520;50.932;6.962;2023-03-01T04:49:19;2.70;81.60
1063;DHT22;520;50.932;6.962;2023-03-01T04:52:07;2.70;81.90
1063;DHT22;520;50.932;6.962;2023-03-01T04:58:53;3.20;82.40
1063;DHT22;520;50.932;6.962;2023-03-01T05:08:37;2.80;83.60
1063;DHT22;520;50.932;6.962;2023-03-01T05:11:18;3.00;82.70
1063;DHT22;520;50.932;6.962;2023-03-01T05:17:15;3.00;82.40
1063;DHT22;520;50.932;6.962;2023-03-01T05:20:29;3.20;81.60
1063;DHT22;520;50.932;6.962;2023-03-01T05:23:22;3.00;81.20
1063;DHT22;520;50.932;6.962;2023-03-01T05:25:58;3.10;81.70
1063;DHT22;520;50.932;6.962;2023-03-01T05:29:04;2.80;81.90
1063;DHT22;520;50.932;6.962;2023-03-01T05:34:54;2.80;82.90
1063;DHT22;520;50.932;6.962;2023-03-01T05:37:49;2.60;83.40
1063;DHT22;520;50.932;6.962;2023-03-01T05:40:44;2.50;84.00
1063;DHT22;520;50.932;6.962;2023-03-01T05:44:04;2.70;84.00
1063;DHT22;520;50.932;6.962;2023-03-01T05:56:57;2.60;84.20
1063;DHT22;520;50.932;6.962;2023-03-01T06:00:19;2.80;84.60
1063;DHT22;520;50.932;6.962;2023-03-01T06:03:18;2.60;84.80
1063;DHT22;520;50.932;6.962;2023-03-01T06:17:17;2.60;85.30
1063;DHT22;520;50.932;6.962;2023-03-01T06:20:41;2.60;84.40
1063;DHT22;520;50.932;6.962;2023-03-01T06:24:02;2.70;84.10
1063;DHT22;520;50.932;6.962;2023-03-01T06:27:15;2.60;83.70
1063;DHT22;520;50.932;6.962;2023-03-01T06:30:16;2.50;84.50
1063;DHT22;520;50.932;6.962;2023-03-01T06:33:47;2.50;84.70
1063;DHT22;520;50.932;6.962;2023-03-01T06:36:52;2.40;84.90
1063;DHT22;520;50.932;6.962;2023-03-01T06:43:24;2.50;85.30
1063;DHT22;520;50.932;6.962;2023-03-01T07:02:05;2.60;82.50
1063;DHT22;520;50.932;6.962;2023-03-01T07:08:18;2.80;81.90
1063;DHT22;520;50.932;6.962;2023-03-01T07:11:17;2.60;82.00
1063;DHT22;520;50.932;6.962;2023-03-01T07:14:44;2.80;83.00
1063;DHT22;520;50.932;6.962;2023-03-01T07:17:53;2.80;82.40
1063;DHT22;520;50.932;6.962;2023-03-01T07:20:50;2.90;81.50
1063;DHT22;520;50.932;6.962;2023-03-01T07:23:28;2.90;81.50
1063;DHT22;520;50.932;6.962;2023-03-01T07:26:08;2.80;81.40
1063;DHT22;520;50.932;6.962;2023-03-01T07:29:06;3.00;81.30
1063;DHT22;520;50.932;6.962;2023-03-01T07:31:46;3.70;84.10
1063;DHT22;520;50.932;6.962;2023-03-01T07:34:54;6.80;80.10
1063;DHT22;520;50.932;6.962;2023-03-01T07:37:55;9.40;65.50
1063;DHT22;520;50.932;6.962;2023-03-01T07:40:49;11.30;55.50
1063;DHT22;520;50.932;6.962;2023-03-01T07:44:05;12.10;51.50
1063;DHT22;520;50.932;6.962;2023-03-01T07:53:37;13.10;46.70
1063;DHT22;520;50.932;6.962;2023-03-01T07:56:43;13.50;44.60
1063;DHT22;520;50.932;6.962;2023-03-01T07:59:56;11.90;45.40
1063;DHT22;520;50.932;6.962;2023-03-01T08:02:42;10.90;48.10
1063;DHT22;520;50.932;6.962;2023-03-01T08:05:29;10.00;49.00
1063;DHT22;520;50.932;6.962;2023-03-01T08:08:40;8.70;50.70
1063;DHT22;520;50.932;6.962;2023-03-01T08:11:25;7.60;53.10
1063;DHT22;520;50.932;6.962;2023-03-01T08:13:59;8.00;56.00
1063;DHT22;520;50.932;6.962;2023-03-01T08:16:29;8.60;55.60
1063;DHT22;520;50.932;6.962;2023-03-01T08:19:27;8.90;54.60
1063;DHT22;520;50.932;6.962;2023-03-01T08:22:13;7.80;54.00
1063;DHT22;520;50.932;6.962;2023-03-01T08:24:58;6.80;55.90
1063;DHT22;520;50.932;6.962;2023-03-01T08:27:34;6.00;58.20
1063;DHT22;520;50.932;6.962;2023-03-01T08:30:25;5.70;60.20
1063;DHT22;520;50.932;6.962;2023-03-01T08:33:07;5.40;60.90
1063;DHT22;520;50.932;6.962;2023-03-01T08:36:08;5.10;62.60
1063;DHT22;520;50.932;6.962;2023-03-01T08:39:02;5.00;63.60
1063;DHT22;520;50.932;6.962;2023-03-01T08:41:45;5.00;64.80
1063;DHT22;520;50.932;6.962;2023-03-01T08:44:42;4.70;65.60
1063;DHT22;520;50.932;6.962;2023-03-01T08:47:17;4.90;67.90
1063;DHT22;520;50.932;6.962;2023-03-01T08:50:05;4.80;67.80
1063;DHT22;520;50.932;6.962;2023-03-01T08:52:41;4.80;68.10
1063;DHT22;520;50.932;6.962;2023-03-01T08:55:39;4.90;68.40
1063;DHT22;520;50.932;6.962;2023-03-01T08:58:32;4.90;69.00
1063;DHT22;520;50.932;6.962;2023-03-01T09:01:25;5.00;68.70
1063;DHT22;520;50.932;6.962;2023-03-01T09:04:12;5.10;68.50
1063;DHT22;520;50.932;6.962;2023-03-01T09:06:55;5.20;67.20
1063;DHT22;520;50.932;6.962;2023-03-01T09:09:52;5.00;67.80
1063;DHT22;520;50.932;6.962;2023-03-01T09:12:41;5.60;67.30
1063;DHT22;520;50.932;6.962;2023-03-01T09:18:48;5.70;66.60
1063;DHT22;520;50.932;6.962;2023-03-01T09:21:38;5.80;65.80
1063;DHT22;520;50.932;6.962;2023-03-01T09:24:28;5.80;64.60
1063;DHT22;520;50.932;6.962;2023-03-01T09:27:17;5.60;65.00
1063;DHT22;520;50.932;6.962;2023-03-01T09:30:16;5.70;66.00
1063;DHT22;520;50.932;6.962;2023-03-01T09:32:57;5.90;65.20
1063;DHT22;520;50.932;6.962;2023-03-01T09:35:41;5.90;64.60
1063;DHT22;520;50.932;6.962;2023-03-01T09:38:51;5.90;65.20
1063;DHT22;520;50.932;6.962;2023-03-01T09:44:56;5.90;65.00
1063;DHT22;520;50.932;6.962;2023-03-01T09:47:30;6.10;65.50
1063;DHT22;520;50.932;6.962;2023-03-01T09:50:19;6.00;63.50
1063;DHT22;520;50.932;6.962;2023-03-01T09:53:10;6.10;63.10
1063;DHT22;520;50.932;6.962;2023-03-01T09:56:12;6.10;63.00
1063;DHT22;520;50.932;6.962;2023-03-01T09:59:03;6.10;62.20
1063;DHT22;520;50.932;6.962;2023-03-01T10:02:11;6.10;62.10
1063;DHT22;520;50.932;6.962;2023-03-01T10:04:58;7.60;59.90
1063;DHT22;520;50.932;6.962;2023-03-01T10:10:42;10.40;51.00
1063;DHT22;520;50.932;6.962;2023-03-01T10:16:43;11.60;48.50
1063;DHT22;520;50.932;6.962;2023-03-01T10:19:42;12.00;46.70
1063;DHT22;520;50.932;6.962;2023-03-01T10:22:36;10.70;46.80
1063;DHT22;520;50.932;6.962;2023-03-01T10:29:04;9.40;51.40
1063;DHT22;520;50.932;6.962;2023-03-01T10:32:34;9.00;52.70
1063;DHT22;520;50.932;6.962;2023-03-01T10:38:03;8.70;53.50
1063;DHT22;520;50.932;6.962;2023-03-01T10:41:07;8.60;54.00
1063;DHT22;520;50.932;6.962;2023-03-01T10:44:09;8.40;54.20
1063;DHT22;520;50.932;6.962;2023-03-01T10:54:27;8.00;53.70
1063;DHT22;520;50.932;6.962;2023-03-01T10:57:10;7.70;53.80
1063;DHT22;520;50.932;6.962;2023-03-01T11:00:58;7.80;54.10
1063;DHT22;520;50.932;6.962;2023-03-01T11:04:11;7.50;54.80
1063;DHT22;520;50.932;6.962;2023-03-01T11:07:01;7.40;54.50
1063;DHT22;520;50.932;6.962;2023-03-01T11:13:17;7.70;55.20
1063;DHT22;520;50.932;6.962;2023-03-01T11:16:37;7.40;55.30
1063;DHT22;520;50.932;6.962;2023-03-01T11:23:19;7.60;55.90
1063;DHT22;520;50.932;6.962;2023-03-01T11:29:38;7.60;56.30
1063;DHT22;520;50.932;6.962;2023-03-01T11:40:55;8.00;53.70
1063;DHT22;520;50.932;6.962;2023-03-01T11:54:12;8.20;54.10
1063;DHT22;520;50.932;6.962;2023-03-01T12:08:20;8.10;54.00
1063;DHT22;520;50.932;6.962;2023-03-01T12:18:16;8.50;54.00
1063;DHT22;520;50.932;6.962;2023-03-01T12:42:00;9.20;53.20
1063;DHT22;520;50.932;6.962;2023-03-01T12:51:40;9.10;52.70
1063;DHT22;520;50.932;6.962;2023-03-01T12:54:33;9.50;52.90
1063;DHT22;520;50.932;6.962;2023-03-01T12:57:40;9.60;52.30
1063;DHT22;520;50.932;6.962;2023-03-01T13:01:00;9.80;52.00
1063;DHT22;520;50.932;6.962;2023-03-01T13:08:02;10.10;50.80
1063;DHT22;520;50.932;6.962;2023-03-01T13:11:54;10.60;50.00
1063;DHT22;520;50.932;6.962;2023-03-01T14:02:25;13.60;41.30
1063;DHT22;520;50.932;6.962;2023-03-01T14:05:24;13.30;43.10
1063;DHT22;520;50.932;6.962;2023-03-01T14:08:32;12.70;42.60
1063;DHT22;520;50.932;6.962;2023-03-01T14:20:43;11.70;43.40
1063;DHT22;520;50.932;6.962;2023-03-01T14:23:57;11.30;44.30
1063;DHT22;520;50.932;6.962;2023-03-01T14:26:35;11.10;44.70
1063;DHT22;520;50.932;6.962;2023-03-01T14:29:35;11.40;44.90
1063;DHT22;520;50.932;6.962;2023-03-01T14:33:15;11.20;44.90
1063;DHT22;520;50.932;6.962;2023-03-01T14:36:35;11.10;45.70
1063;DHT22;520;50.932;6.962;2023-03-01T14:39:28;11.20;45.30
1063;DHT22;520;50.932;6.962;2023-03-01T14:42:40;11.00;45.40
1063;DHT22;520;50.932;6.962;2023-03-01T14:45:33;11.00;46.10
1063;DHT22;520;50.932;6.962;2023-03-01T14:48:13;11.00;46.80
1063;DHT22;520;50.932;6.962;2023-03-01T14:51:20;10.90;47.50
1063;DHT22;520;50.932;6.962;2023-03-01T15:07:05;10.60;51.40
1063;DHT22;520;50.932;6.962;2023-03-01T15:10:05;10.40;51.90
1063;DHT22;520;50.932;6.962;2023-03-01T15:13:25;10.30;52.00
1063;DHT22;520;50.932;6.962;2023-03-01T15:16:42;10.20;51.90
1063;DHT22;520;50.932;6.962;2023-03-01T15:20:23;10.00;52.50
1063;DHT22;520;50.932;6.962;2023-03-01T15:23:29;10.00;52.50
1063;DHT22;520;50.932;6.962;2023-03-01T15:52:50;9.90;54.30
1063;DHT22;520;50.932;6.962;2023-03-01T15:55:42;9.80;54.40
1063;DHT22;520;50.932;6.962;2023-03-01T16:01:17;9.60;55.00
1063;DHT22;520;50.932;6.962;2023-03-01T16:03:59;9.70;55.10
1063;DHT22;520;50.932;6.962;2023-03-01T16:10:16;9.80;54.20
1063;DHT22;520;50.932;6.962;2023-03-01T16:13:02;9.80;53.80
1063;DHT22;520;50.932;6.962;2023-03-01T16:15:46;9.80;53.60
1063;DHT22;520;50.932;6.962;2023-03-01T16:18:59;9.60;53.60
1063;DHT22;520;50.932;6.962;2023-03-01T16:22:11;9.70;53.80
1063;DHT22;520;50.932;6.962;2023-03-01T16:25:13;9.80;54.00
1063;DHT22;520;50.932;6.962;2023-03-01T16:27:55;9.80;54.00
1063;DHT22;520;50.932;6.962;2023-03-01T16:30:44;9.70;54.10
1063;DHT22;520;50.932;6.962;2023-03-01T16:33:40;9.90;53.80
1063;DHT22;520;50.932;6.962;2023-03-01T16:36:22;9.90;53.70
1063;DHT22;520;50.932;6.962;2023-03-01T16:39:13;9.90;54.20
1063;DHT22;520;50.932;6.962;2023-03-01T16:42:09;10.10;52.90
1063;DHT22;520;50.932;6.962;2023-03-01T16:44:42;10.10;52.20
1063;DHT22;520;50.932;6.962;2023-03-01T16:47:26;9.80;53.40
1063;DHT22;520;50.932;6.962;2023-03-01T16:50:17;9.70;54.00
1063;DHT22;520;50.932;6.962;2023-03-01T16:53:18;9.80;54.30
1063;DHT22;520;50.932;6.962;2023-03-01T16:56:14;9.50;54.70
1063;DHT22;520;50.932;6.962;2023-03-01T16:59:06;9.50;55.40
1063;DHT22;520;50.932;6.962;2023-03-01T17:01:33;9.50;55.50
1063;DHT22;520;50.932;6.962;2023-03-01T17:04:29;9.40;55.50
1063;DHT22;520;50.932;6.962;2023-03-01T17:07:19;9.20;55.50
1063;DHT22;520;50.932;6.962;2023-03-01T17:10:23;9.00;56.00
1063;DHT22;520;50.932;6.962;2023-03-01T17:12:56;8.80;56.10
1063;DHT22;520;50.932;6.962;2023-03-01T17:15:39;8.70;55.60
1063;DHT22;520;50.932;6.962;2023-03-01T17:18:11;8.80;55.50
1063;DHT22;520;50.932;6.962;2023-03-01T17:23:45;8.80;55.30
1063;DHT22;520;50.932;6.962;2023-03-01T17:26:44;8.60;55.40
1063;DHT22;520;50.932;6.962;2023-03-01T17:29:15;8.60;55.50
1063;DHT22;520;50.932;6.962;2023-03-01T17:31:50;8.60;55.30
1063;DHT22;520;50.932;6.962;2023-03-01T17:34:31;8.60;55.40
1063;DHT22;520;50.932;6.962;2023-03-01T17:37:01;8.70;55.70
1063;DHT22;520;50.932;6.962;2023-03-01T17:46:27;8.40;56.00
1063;DHT22;520;50.932;6.962;2023-03-01T17:49:57;8.30;56.60
1063;DHT22;520;50.932;6.962;2023-03-01T17:53:38;8.30;57.30
1063;DHT22;520;50.932;6.962;2023-03-01T18:12:14;8.00;56.90
1063;DHT22;520;50.932;6.962;2023-03-01T18:22:18;8.00;56.90
1063;DHT22;520;50.932;6.962;2023-03-01T18:25:02;8.20;56.80
1063;DHT22;520;50.932;6.962;2023-03-01T18:31:19;7.80;57.10
1063;DHT22;520;50.932;6.962;2023-03-01T18:41:07;7.70;57.60
1063;DHT22;520;50.932;6.962;2023-03-01T18:43:58;7.60;57.80
1063;DHT22;520;50.932;6.962;2023-03-01T18:46:35;7.60;58.00
1063;DHT22;520;50.932;6.962;2023-03-01T18:49:07;7.70;58.00
1063;DHT22;520;50.932;6.962;2023-03-01T18:51:43;7.70;58.10
1063;DHT22;520;50.932;6.962;2023-03-01T18:54:35;7.60;58.20
1063;DHT22;520;50.932;6.962;2023-03-01T18:57:15;7.70;58.50
1063;DHT22;520;50.932;6.962;2023-03-01T19:00:01;7.60;58.40
1063;DHT22;520;50.932;6.962;2023-03-01T19:03:01;7.60;58.40
1063;DHT22;520;50.932;6.962;2023-03-01T19:08:44;7.60;58.50
1063;DHT22;520;50.932;6.962;2023-03-01T19:11:46;7.80;58.90
1063;DHT22;520;50.932;6.962;2023-03-01T19:14:36;7.60;58.80
1063;DHT22;520;50.932;6.962;2023-03-01T19:17:40;7.50;59.20
1063;DHT22;520;50.932;6.962;2023-03-01T19:20:28;7.30;59.50
1063;DHT22;520;50.932;6.962;2023-03-01T19:26:36;7.40;59.20
1063;DHT22;520;50.932;6.962;2023-03-01T19:29:26;7.20;59.10
1063;DHT22;520;50.932;6.962;2023-03-01T19:32:26;7.10;59.50
1063;DHT22;520;50.932;6.962;2023-03-01T19:40:56;7.20;59.30
1063;DHT22;520;50.932;6.962;2023-03-01T19:43:42;7.20;59.40
1063;DHT22;520;50.932;6.962;2023-03-01T19:46:53;7.50;59.60
1063;DHT22;520;50.932;6.962;2023-03-01T19:49:59;7.40;59.60
1063;DHT22;520;50.932;6.962;2023-03-01T19:53:04;7.30;60.50
1063;DHT22;520;50.932;6.962;2023-03-01T19:56:00;7.40;60.20
1063;DHT22;520;50.932;6.962;2023-03-01T19:58:47;7.30;60.30
1063;DHT22;520;50.932;6.962;2023-03-01T20:01:57;7.20;60.80
1063;DHT22;520;50.932;6.962;2023-03-01T20:04:38;7.20;61.00
1063;DHT22;520;50.932;6.962;2023-03-01T20:07:39;7.30;61.10
1063;DHT22;520;50.932;6.962;2023-03-01T20:10:17;7.20;60.80
1063;DHT22;520;50.932;6.962;2023-03-01T20:13:00;7.10;60.30
1063;DHT22;520;50.932;6.962;2023-03-01T20:15:58;7.00;60.10
1063;DHT22;520;50.932;6.962;2023-03-01T20:18:45;7.10;60.10
1063;DHT22;520;50.932;6.962;2023-03-01T20:21:35;7.00;59.70
1063;DHT22;520;50.932;6.962;2023-03-01T20:24:17;7.20;59.50
1063;DHT22;520;50.932;6.962;2023-03-01T20:27:03;7.20;59.50
1063;DHT22;520;50.932;6.962;2023-03-01T20:29:39;7.10;59.90
1063;DHT22;520;50.932;6.962;2023-03-01T20:32:16;7.00;60.20
1063;DHT22;520;50.932;6.962;2023-03-01T20:34:56;7.00;60.40
1063;DHT22;520;50.932;6.962;2023-03-01T20:37:33;7.00;60.30
1063;DHT22;520;50.932;6.962;2023-03-01T20:40:15;7.00;60.90
1063;DHT22;520;50.932;6.962;2023-03-01T20:43:00;6.90;60.50
1063;DHT22;520;50.932;6.962;2023-03-01T20:45:36;6.80;60.60
1063;DHT22;520;50.932;6.962;2023-03-01T20:48:16;6.80;60.80
1063;DHT22;520;50.932;6.962;2023-03-01T20:50:54;6.90;60.20
1063;DHT22;520;50.932;6.962;2023-03-01T20:53:42;6.90;61.10
1063;DHT22;520;50.932;6.962;2023-03-01T20:56:19;6.80;60.10
1063;DHT22;520;50.932;6.962;2023-03-01T20:58:53;6.70;60.30
1063;DHT22;520;50.932;6.962;2023-03-01T21:01:47;6.80;60.50
1063;DHT22;520;50.932;6.962;2023-03-01T21:04:32;6.70;60.20
1063;DHT22;520;50.932;6.962;2023-03-01T21:07:21;6.60;60.30
1063;DHT22;520;50.932;6.962;2023-03-01T21:10:22;6.50;60.50
1063;DHT22;520;50.932;6.962;2023-03-01T21:12:58;6.40;60.50
1063;DHT22;520;50.932;6.962;2023-03-01T21:15:39;6.40;60.40
1063;DHT22;520;50.932;6.962;2023-03-01T21:18:27;6.40;60.60
1063;DHT22;520;50.932;6.962;2023-03-01T21:21:09;6.40;60.90
1063;DHT22;520;50.932;6.962;2023-03-01T21:24:14;6.40;61.30
1063;DHT22;520;50.932;6.962;2023-03-01T21:26:56;6.40;61.60
1063;DHT22;520;50.932;6.962;2023-03-01T21:29:45;6.40;61.60
1063;DHT22;520;50.932;6.962;2023-03-01T21:32:18;6.40;61.40
1063;DHT22;520;50.932;6.962;2023-03-01T21:34:55;6.50;60.60
1063;DHT22;520;50.932;6.962;2023-03-01T21:37:29;6.50;60.10
1063;DHT22;520;50.932;6.962;2023-03-01T21:39:58;6.50;59.90
1063;DHT22;520;50.932;6.962;2023-03-01T21:42:28;6.70;59.30
1063;DHT22;520;50.932;6.962;2023-03-01T21:45:05;6.90;58.60
1063;DHT22;520;50.932;6.962;2023-03-01T21:47:40;7.00;58.00
1063;DHT22;520;50.932;6.962;2023-03-01T21:53:14;6.60;57.70
1063;DHT22;520;50.932;6.962;2023-03-01T21:55:55;6.50;58.50
1063;DHT22;520;50.932;6.962;2023-03-01T21:58:26;6.90;58.50
1063;DHT22;520;50.932;6.962;2023-03-01T22:00:57;6.90;58.50
1063;DHT22;520;50.932;6.962;2023-03-01T22:11:46;6.40;58.60
1063;DHT22;520;50.932;6.962;2023-03-01T22:14:22;6.60;59.30
1063;DHT22;520;50.932;6.962;2023-03-01T22:16:49;6.70;59.30
1063;DHT22;520;50.932;6.962;2023-03-01T22:22:08;6.60;60.20
1063;DHT22;520;50.932;6.962;2023-03-01T22:27:23;6.40;61.30
1063;DHT22;520;50.932;6.962;2023-03-01T22:30:03;6.30;62.10
1063;DHT22;520;50.932;6.962;2023-03-01T22:32:45;6.10;62.70
1063;DHT22;520;50.932;6.962;2023-03-01T22:35:34;6.10;63.30
1063;DHT22;520;50.932;6.962;2023-03-01T22:38:28;6.00;63.40
1063;DHT22;520;50.932;6.962;2023-03-01T22:41:09;6.10;63.60
1063;DHT22;520;50.932;6.962;2023-03-01T22:43:50;6.10;63.80
1063;DHT22;520;50.932;6.962;2023-03-01T22:46:22;6.10;63.90
1063;DHT22;520;50.932;6.962;2023-03-01T22:48:57;6.30;64.10
1063;DHT22;520;50.932;6.962;2023-03-01T22:51:35;6.20;63.70
1063;DHT22;520;50.932;6.962;2023-03-01T22:54:11;6.20;63.90
1063;DHT22;520;50.932;6.962;2023-03-01T22:56:48;6.10;63.80
1063;DHT22;520;50.932;6.962;2023-03-01T22:59:23;6.10;63.20
1063;DHT22;520;50.932;6.962;2023-03-01T23:01:58;6.10;63.00
1063;DHT22;520;50.932;6.962;2023-03-01T23:04:40;6.10;62.90
1063;DHT22;520;50.932;6.962;2023-03-01T23:07:33;6.10;62.40
1063;DHT22;520;50.932;6.962;2023-03-01T23:10:38;6.00;61.90
1063;DHT22;520;50.932;6.962;2023-03-01T23:13:27;6.10;62.10
1063;DHT22;520;50.932;6.962;2023-03-01T23:19:12;6.20;62.60
1063;DHT22;520;50.932;6.962;2023-03-01T23:21:56;6.00;62.70
1063;DHT22;520;50.932;6.962;2023-03-01T23:24:34;6.10;63.40
1063;DHT22;520;50.932;6.962;2023-03-01T23:27:16;6.10;63.30
1063;DHT22;520;50.932;6.962;2023-03-01T23:29:56;6.10;63.40
1063;DHT22;520;50.932;6.962;2023-03-01T23:32:41;6.10;62.60
1063;DHT22;520;50.932;6.962;2023-03-01T23:35:11;6.00;63.00
1063;DHT22;520;50.932;6.962;2023-03-01T23:38:01;5.90;63.60
1063;DHT22;520;50.932;6.962;2023-03-01T23:40:39;5.90;64.10
1063;DHT22;520;50.932;6.962;2023-03-01T23:43:14;6.10;64.40
1063;DHT22;520;50.932;6.962;2023-03-01T23:45:45;5.90;64.20
1063;DHT22;520;50.932;6.962;2023-03-01T23:48:33;6.10;64.30
1063;DHT22;520;50.932;6.962;2023-03-01T23:51:21;6.00;64.50
1063;DHT22;520;50.932;6.962;2023-03-01T23:54:22;5.90;64.30
1063;DHT22;520;50.932;6.962;2023-03-01T23:57:00;5.80;64.50
1063;DHT22;520;50.932;6.962;2023-03-01T23:59:47;5.80;65.10
